sensor_id;sensor_type;location;lat;lon;timestamp;temperature;humidity
40151;DHT22;25866;52.420;10.640;2024-01-15T00:01:21;1.20;99.90
40151;DHT22;25866;52.420;10.640;2024-01-15T00:03:47;1.20;99.90
40151;DHT22;25866;52.420;10.640;2024-01-15T00:06:14;1.30;99.90
40151;DHT22;25866;52.420;10.640;2024-01-15T00:11:33;1.30;99.90
40151;DHT22;25866;52.420;10.640;2024-01-15T00:13:59;1.30;99.90
40151;DHT22;25866;52.420;10.640;2024-01-15T00:16:34;1.40;99.90
40151;DHT22;25866;52.420;10.640;2024-01-15T00:18:59;1.30;99.90
40151;DHT22;25866;52.420;10.640;2024-01-15T00:21:25;1.40;99.90
40151;DHT22;25866;52.420;10.640;2024-01-15T00:23:51;1.40;99.90
40151;DHT22;25866;52.420;10.640;2024-01-15T00:26:25;1.40;99.90
40151;DHT22;25866;52.420;10.640;2024-01-15T00:28:50;1.40;99.90
40151;DHT22;25866;52.420;10.640;2024-01-15T00:31:16;1.40;99.90
40151;DHT22;25866;52.420;10.640;2024-01-15T00:33:43;1.50;99.90
40151;DHT22;25866;52.420;10.640;2024-01-15T00:38:56;1.60;99.90
40151;DHT22;25866;52.420;10.640;2024-01-15T00:41:22;1.60;99.90
40151;DHT22;25866;52.420;10.640;2024-01-15T00:43:48;1.60;99.90
40151;DHT22;25866;52.420;10.640;2024-01-15T00:46:25;1.60;99.90
40151;DHT22;25866;52.420;10.640;2024-01-15T00:48:50;1.70;99.90
40151;DHT22;25866;52.420;10.640;2024-01-15T00:51:16;1.70;99.90
40151;DHT22;25866;52.420;10.640;2024-01-15T00:53:42;1.70;99.90
40151;DHT22;25866;52.420;10.640;2024-01-15T00:56:07;1.60;99.90
40151;DHT22;25866;52.420;10.640;2024-01-15T00:58:33;1.60;99.90
40151;DHT22;25866;52.420;10.640;2024-01-15T01:00:59;1.50;99.90
40151;DHT22;25866;52.420;10.640;2024-01-15T01:03:24;1.50;99.90
40151;DHT22;25866;52.420;10.640;2024-01-15T01:05:50;1.40;99.90
40151;DHT22;25866;52.420;10.640;2024-01-15T01:08:16;1.40;99.90
40151;DHT22;25866;52.420;10.640;2024-01-15T01:10:42;1.40;99.90
40151;DHT22;25866;52.420;10.640;2024-01-15T01:13:11;1.60;99.90
40151;DHT22;25866;52.420;10.640;2024-01-15T01:15:36;1.60;99.90
40151;DHT22;25866;52.420;10.640;2024-01-15T01:18:05;1.50;99.90
40151;DHT22;25866;52.420;10.640;2024-01-15T01:20:30;1.40;99.90
40151;DHT22;25866;52.420;10.640;2024-01-15T01:22:56;1.40;99.90
40151;DHT22;25866;52.420;10.640;2024-01-15T01:25:22;1.30;99.90
40151;DHT22;25866;52.420;10.640;2024-01-15T01:27:48;1.30;99.90
40151;DHT22;25866;52.420;10.640;2024-01-15T01:30:14;1.20;99.90
40151;DHT22;25866;52.420;10.640;2024-01-15T01:32:40;1.20;99.90
40151;DHT22;25866;52.420;10.640;2024-01-15T01:35:06;1.30;99.90
40151;DHT22;25866;52.420;10.640;2024-01-15T01:37:34;1.30;99.90
40151;DHT22;25866;52.420;10.640;2024-01-15T01:40:00;1.30;99.90
40151;DHT22;25866;52.420;10.640;2024-01-15T01:42:25;1.40;99.90
40151;DHT22;25866;52.420;10.640;2024-01-15T01:44:51;1.30;99.90
40151;DHT22;25866;52.420;10.640;2024-01-15T01:47:17;1.30;99.90
40151;DHT22;25866;52.420;10.640;2024-01-15T01:49:43;1.30;99.90
40151;DHT22;25866;52.420;10.640;2024-01-15T01:52:09;1.40;99.90
40151;DHT22;25866;52.420;10.640;2024-01-15T01:54:37;1.40;99.90
40151;DHT22;25866;52.420;10.640;2024-01-15T02:00:14;1.40;99.90
40151;DHT22;25866;52.420;10.640;2024-01-15T02:02:41;1.50;99.90
40151;DHT22;25866;52.420;10.640;2024-01-15T02:05:07;1.40;99.90
40151;DHT22;25866;52.420;10.640;2024-01-15T02:07:34;1.40;99.90
40151;DHT22;25866;52.420;10.640;2024-01-15T02:10:01;1.40;99.90
40151;DHT22;25866;52.420;10.640;2024-01-15T02:12:27;1.40;99.90
40151;DHT22;25866;52.420;10.640;2024-01-15T02:14:52;1.40;99.90
40151;DHT22;25866;52.420;10.640;2024-01-15T02:17:20;1.40;99.90
40151;DHT22;25866;52.420;10.640;2024-01-15T02:19:46;1.40;99.90
40151;DHT22;25866;52.420;10.640;2024-01-15T02:22:11;1.40;99.90
40151;DHT22;25866;52.420;10.640;2024-01-15T02:24:37;1.50;99.90
40151;DHT22;25866;52.420;10.640;2024-01-15T02:27:03;1.40;99.90
40151;DHT22;25866;52.420;10.640;2024-01-15T02:29:29;1.50;99.90
40151;DHT22;25866;52.420;10.640;2024-01-15T02:31:55;1.40;99.90
40151;DHT22;25866;52.420;10.640;2024-01-15T02:34:22;1.50;99.90
40151;DHT22;25866;52.420;10.640;2024-01-15T02:36:48;1.50;99.90
40151;DHT22;25866;52.420;10.640;2024-01-15T02:39:14;1.40;99.90
40151;DHT22;25866;52.420;10.640;2024-01-15T02:41:39;1.50;99.90
40151;DHT22;25866;52.420;10.640;2024-01-15T02:44:05;1.50;99.90
40151;DHT22;25866;52.420;10.640;2024-01-15T02:46:31;1.50;99.90
40151;DHT22;25866;52.420;10.640;2024-01-15T02:48:56;1.50;99.90
40151;DHT22;25866;52.420;10.640;2024-01-15T02:51:22;1.50;99.90
40151;DHT22;25866;52.420;10.640;2024-01-15T02:53:49;1.60;99.90
40151;DHT22;25866;52.420;10.640;2024-01-15T02:56:15;1.60;99.90
40151;DHT22;25866;52.420;10.640;2024-01-15T02:58:49;1.60;99.90
40151;DHT22;25866;52.420;10.640;2024-01-15T03:01:15;1.60;99.90
40151;DHT22;25866;52.420;10.640;2024-01-15T03:03:40;1.60;99.90
40151;DHT22;25866;52.420;10.640;2024-01-15T03:06:06;1.70;99.90
40151;DHT22;25866;52.420;10.640;2024-01-15T03:08:32;1.70;99.90
40151;DHT22;25866;52.420;10.640;2024-01-15T03:10:58;1.70;99.90
40151;DHT22;25866;52.420;10.640;2024-01-15T03:13:24;1.70;99.90
40151;DHT22;25866;52.420;10.640;2024-01-15T03:15:50;1.70;99.90
40151;DHT22;25866;52.420;10.640;2024-01-15T03:18:15;1.80;99.90
40151;DHT22;25866;52.420;10.640;2024-01-15T03:20:41;1.80;99.90
40151;DHT22;25866;52.420;10.640;2024-01-15T03:23:07;1.80;99.90
40151;DHT22;25866;52.420;10.640;2024-01-15T03:25:32;1.80;99.90
40151;DHT22;25866;52.420;10.640;2024-01-15T03:27:58;1.70;99.90
40151;DHT22;25866;52.420;10.640;2024-01-15T03:30:24;1.70;99.90
40151;DHT22;25866;52.420;10.640;2024-01-15T03:32:49;1.70;99.90
40151;DHT22;25866;52.420;10.640;2024-01-15T03:35:15;1.80;99.90
40151;DHT22;25866;52.420;10.640;2024-01-15T03:37:41;1.80;99.90
40151;DHT22;25866;52.420;10.640;2024-01-15T03:40:07;1.80;99.90
40151;DHT22;25866;52.420;10.640;2024-01-15T03:42:33;1.80;99.90
40151;DHT22;25866;52.420;10.640;2024-01-15T03:44:59;1.80;99.90
40151;DHT22;25866;52.420;10.640;2024-01-15T03:47:25;1.90;99.90
40151;DHT22;25866;52.420;10.640;2024-01-15T03:49:59;1.80;99.90
40151;DHT22;25866;52.420;10.640;2024-01-15T03:52:25;1.80;99.90
40151;DHT22;25866;52.420;10.640;2024-01-15T03:54:53;1.80;99.90
40151;DHT22;25866;52.420;10.640;2024-01-15T03:57:19;1.80;99.90
40151;DHT22;25866;52.420;10.640;2024-01-15T03:59:45;1.70;99.90
40151;DHT22;25866;52.420;10.640;2024-01-15T04:02:12;1.80;99.90
40151;DHT22;25866;52.420;10.640;2024-01-15T04:04:41;1.80;99.90
40151;DHT22;25866;52.420;10.640;2024-01-15T04:07:08;2.00;99.90
40151;DHT22;25866;52.420;10.640;2024-01-15T04:09:35;1.90;99.90
40151;DHT22;25866;52.420;10.640;2024-01-15T04:12:01;1.90;99.90
40151;DHT22;25866;52.420;10.640;2024-01-15T04:14:27;1.90;99.90
40151;DHT22;25866;52.420;10.640;2024-01-15T04:16:52;1.90;99.90
40151;DHT22;25866;52.420;10.640;2024-01-15T04:19:22;2.00;99.90
40151;DHT22;25866;52.420;10.640;2024-01-15T04:21:47;1.90;99.90
40151;DHT22;25866;52.420;10.640;2024-01-15T04:24:13;1.90;99.90
40151;DHT22;25866;52.420;10.640;2024-01-15T04:26:39;1.80;99.90
40151;DHT22;25866;52.420;10.640;2024-01-15T04:29:07;1.80;99.90
40151;DHT22;25866;52.420;10.640;2024-01-15T04:31:32;1.80;99.90
40151;DHT22;25866;52.420;10.640;2024-01-15T04:33:58;1.70;99.90
40151;DHT22;25866;52.420;10.640;2024-01-15T04:36:24;1.70;99.90
40151;DHT22;25866;52.420;10.640;2024-01-15T04:38:51;1.70;99.90
40151;DHT22;25866;52.420;10.640;2024-01-15T04:41:17;1.70;99.90
40151;DHT22;25866;52.420;10.640;2024-01-15T04:43:43;1.50;99.90
40151;DHT22;25866;52.420;10.640;2024-01-15T04:46:08;1.50;99.90
40151;DHT22;25866;52.420;10.640;2024-01-15T04:48:37;1.50;99.90
40151;DHT22;25866;52.420;10.640;2024-01-15T04:51:08;1.40;99.90
40151;DHT22;25866;52.420;10.640;2024-01-15T04:53:34;1.50;99.90
40151;DHT22;25866;52.420;10.640;2024-01-15T04:56:00;1.60;99.90
40151;DHT22;25866;52.420;10.640;2024-01-15T04:58:26;1.60;99.90
40151;DHT22;25866;52.420;10.640;2024-01-15T05:00:52;1.60;99.90
40151;DHT22;25866;52.420;10.640;2024-01-15T05:03:19;1.60;99.90
40151;DHT22;25866;52.420;10.640;2024-01-15T05:05:45;1.60;99.90
40151;DHT22;25866;52.420;10.640;2024-01-15T05:08:11;1.70;99.90
40151;DHT22;25866;52.420;10.640;2024-01-15T05:10:38;1.70;99.90
40151;DHT22;25866;52.420;10.640;2024-01-15T05:13:04;1.70;99.90
40151;DHT22;25866;52.420;10.640;2024-01-15T05:15:29;1.70;99.90
40151;DHT22;25866;52.420;10.640;2024-01-15T05:17:55;1.70;99.90
40151;DHT22;25866;52.420;10.640;2024-01-15T05:20:21;1.70;99.90
40151;DHT22;25866;52.420;10.640;2024-01-15T05:22:47;1.80;99.90
40151;DHT22;25866;52.420;10.640;2024-01-15T05:25:13;1.80;99.90
40151;DHT22;25866;52.420;10.640;2024-01-15T05:27:38;1.70;99.90
40151;DHT22;25866;52.420;10.640;2024-01-15T05:30:11;1.70;99.90
40151;DHT22;25866;52.420;10.640;2024-01-15T05:32:37;1.70;99.90
40151;DHT22;25866;52.420;10.640;2024-01-15T05:35:03;1.80;99.90
40151;DHT22;25866;52.420;10.640;2024-01-15T05:37:29;1.70;99.90
40151;DHT22;25866;52.420;10.640;2024-01-15T05:40:06;1.80;99.90
40151;DHT22;25866;52.420;10.640;2024-01-15T05:42:32;1.80;99.90
40151;DHT22;25866;52.420;10.640;2024-01-15T05:44:57;1.80;99.90
40151;DHT22;25866;52.420;10.640;2024-01-15T05:47:25;1.70;99.90
40151;DHT22;25866;52.420;10.640;2024-01-15T05:49:56;1.70;99.90
40151;DHT22;25866;52.420;10.640;2024-01-15T05:52:22;1.70;99.90
40151;DHT22;25866;52.420;10.640;2024-01-15T05:54:49;1.60;99.90
40151;DHT22;25866;52.420;10.640;2024-01-15T05:57:15;1.50;99.90
40151;DHT22;25866;52.420;10.640;2024-01-15T05:59:46;1.50;99.90
40151;DHT22;25866;52.420;10.640;2024-01-15T06:02:11;1.50;99.90
40151;DHT22;25866;52.420;10.640;2024-01-15T06:04:37;1.60;99.90
40151;DHT22;25866;52.420;10.640;2024-01-15T06:07:03;1.50;99.90
40151;DHT22;25866;52.420;10.640;2024-01-15T06:09:32;1.50;99.90
40151;DHT22;25866;52.420;10.640;2024-01-15T06:11:58;1.60;99.90
40151;DHT22;25866;52.420;10.640;2024-01-15T06:14:23;1.60;99.90
40151;DHT22;25866;52.420;10.640;2024-01-15T06:16:49;1.70;99.90
40151;DHT22;25866;52.420;10.640;2024-01-15T06:19:15;1.70;99.90
40151;DHT22;25866;52.420;10.640;2024-01-15T06:21:43;1.60;99.90
40151;DHT22;25866;52.420;10.640;2024-01-15T06:24:08;1.50;99.90
40151;DHT22;25866;52.420;10.640;2024-01-15T06:26:35;1.50;99.90
40151;DHT22;25866;52.420;10.640;2024-01-15T06:29:01;1.40;99.90
40151;DHT22;25866;52.420;10.640;2024-01-15T06:31:30;1.40;99.90
40151;DHT22;25866;52.420;10.640;2024-01-15T06:33:56;1.40;99.90
40151;DHT22;25866;52.420;10.640;2024-01-15T06:36:21;1.40;99.90
40151;DHT22;25866;52.420;10.640;2024-01-15T06:38:47;1.40;99.90
40151;DHT22;25866;52.420;10.640;2024-01-15T06:41:16;1.40;99.90
40151;DHT22;25866;52.420;10.640;2024-01-15T06:43:41;1.50;99.90
40151;DHT22;25866;52.420;10.640;2024-01-15T06:46:07;1.60;99.90
40151;DHT22;25866;52.420;10.640;2024-01-15T06:48:33;1.50;99.90
40151;DHT22;25866;52.420;10.640;2024-01-15T06:51:00;1.50;99.90
40151;DHT22;25866;52.420;10.640;2024-01-15T06:53:26;1.50;99.90
40151;DHT22;25866;52.420;10.640;2024-01-15T06:55:52;1.40;99.90
40151;DHT22;25866;52.420;10.640;2024-01-15T06:58:17;1.30;99.90
40151;DHT22;25866;52.420;10.640;2024-01-15T07:00:45;1.30;99.90
40151;DHT22;25866;52.420;10.640;2024-01-15T07:03:11;1.20;99.90
40151;DHT22;25866;52.420;10.640;2024-01-15T07:05:37;1.30;99.90
40151;DHT22;25866;52.420;10.640;2024-01-15T07:08:03;1.30;99.90
40151;DHT22;25866;52.420;10.640;2024-01-15T07:10:52;1.30;99.90
40151;DHT22;25866;52.420;10.640;2024-01-15T07:13:18;1.30;99.90
40151;DHT22;25866;52.420;10.640;2024-01-15T07:15:43;1.30;99.90
40151;DHT22;25866;52.420;10.640;2024-01-15T07:18:09;1.40;99.90
40151;DHT22;25866;52.420;10.640;2024-01-15T07:20:37;1.40;99.90
40151;DHT22;25866;52.420;10.640;2024-01-15T07:23:03;1.40;99.90
40151;DHT22;25866;52.420;10.640;2024-01-15T07:25:29;1.50;99.90
40151;DHT22;25866;52.420;10.640;2024-01-15T07:27:55;1.40;99.90
40151;DHT22;25866;52.420;10.640;2024-01-15T07:30:23;1.40;99.90
40151;DHT22;25866;52.420;10.640;2024-01-15T07:32:49;1.40;99.90
40151;DHT22;25866;52.420;10.640;2024-01-15T07:35:15;1.40;99.90
40151;DHT22;25866;52.420;10.640;2024-01-15T07:37:41;1.40;99.90
40151;DHT22;25866;52.420;10.640;2024-01-15T07:40:07;1.40;99.90
40151;DHT22;25866;52.420;10.640;2024-01-15T07:42:35;1.40;99.90
40151;DHT22;25866;52.420;10.640;2024-01-15T07:45:01;1.40;99.90
40151;DHT22;25866;52.420;10.640;2024-01-15T07:47:26;1.40;99.90
40151;DHT22;25866;52.420;10.640;2024-01-15T07:49:53;1.50;99.90
40151;DHT22;25866;52.420;10.640;2024-01-15T07:52:19;1.50;99.90
40151;DHT22;25866;52.420;10.640;2024-01-15T07:54:45;1.50;99.90
40151;DHT22;25866;52.420;10.640;2024-01-15T07:57:11;1.50;99.90
40151;DHT22;25866;52.420;10.640;2024-01-15T07:59:37;1.60;99.90
40151;DHT22;25866;52.420;10.640;2024-01-15T08:02:27;1.50;99.90
40151;DHT22;25866;52.420;10.640;2024-01-15T08:04:52;1.50;99.90
40151;DHT22;25866;52.420;10.640;2024-01-15T08:07:18;1.50;99.90
40151;DHT22;25866;52.420;10.640;2024-01-15T08:09:43;1.50;99.90
40151;DHT22;25866;52.420;10.640;2024-01-15T08:12:23;1.50;99.90
40151;DHT22;25866;52.420;10.640;2024-01-15T08:14:48;1.50;99.90
40151;DHT22;25866;52.420;10.640;2024-01-15T08:17:14;1.40;99.90
40151;DHT22;25866;52.420;10.640;2024-01-15T08:19:44;1.50;99.90
40151;DHT22;25866;52.420;10.640;2024-01-15T08:22:14;1.50;99.90
40151;DHT22;25866;52.420;10.640;2024-01-15T08:24:39;1.50;99.90
40151;DHT22;25866;52.420;10.640;2024-01-15T08:27:05;1.50;99.90
40151;DHT22;25866;52.420;10.640;2024-01-15T08:29:31;1.60;99.90
40151;DHT22;25866;52.420;10.640;2024-01-15T08:32:03;1.60;99.90
40151;DHT22;25866;52.420;10.640;2024-01-15T08:34:29;1.70;99.90
40151;DHT22;25866;52.420;10.640;2024-01-15T08:36:54;1.70;99.90
40151;DHT22;25866;52.420;10.640;2024-01-15T08:39:20;1.70;99.90
40151;DHT22;25866;52.420;10.640;2024-01-15T08:41:47;1.70;99.90
40151;DHT22;25866;52.420;10.640;2024-01-15T08:44:12;1.70;99.90
40151;DHT22;25866;52.420;10.640;2024-01-15T08:46:38;1.80;99.90
40151;DHT22;25866;52.420;10.640;2024-01-15T08:49:04;1.70;99.90
40151;DHT22;25866;52.420;10.640;2024-01-15T08:51:31;1.60;99.90
40151;DHT22;25866;52.420;10.640;2024-01-15T08:53:57;1.70;99.90
40151;DHT22;25866;52.420;10.640;2024-01-15T08:56:23;1.70;99.90
40151;DHT22;25866;52.420;10.640;2024-01-15T08:58:49;1.70;99.90
40151;DHT22;25866;52.420;10.640;2024-01-15T09:01:15;1.60;99.90
40151;DHT22;25866;52.420;10.640;2024-01-15T09:03:42;1.60;99.90
40151;DHT22;25866;52.420;10.640;2024-01-15T09:06:08;1.60;99.90
40151;DHT22;25866;52.420;10.640;2024-01-15T09:08:35;1.50;99.90
40151;DHT22;25866;52.420;10.640;2024-01-15T09:11:01;1.50;99.90
40151;DHT22;25866;52.420;10.640;2024-01-15T09:16:26;1.40;99.90
40151;DHT22;25866;52.420;10.640;2024-01-15T09:18:51;1.40;99.90
40151;DHT22;25866;52.420;10.640;2024-01-15T09:21:17;1.30;99.90
40151;DHT22;25866;52.420;10.640;2024-01-15T09:23:43;1.30;99.90
40151;DHT22;25866;52.420;10.640;2024-01-15T09:26:09;1.30;99.90
40151;DHT22;25866;52.420;10.640;2024-01-15T09:28:35;1.20;99.90
40151;DHT22;25866;52.420;10.640;2024-01-15T09:31:00;1.30;99.90
40151;DHT22;25866;52.420;10.640;2024-01-15T09:33:26;1.30;99.90
40151;DHT22;25866;52.420;10.640;2024-01-15T09:35:52;1.30;99.90
40151;DHT22;25866;52.420;10.640;2024-01-15T09:38:17;1.40;99.90
40151;DHT22;25866;52.420;10.640;2024-01-15T09:40:45;1.40;99.90
40151;DHT22;25866;52.420;10.640;2024-01-15T09:43:16;1.50;99.90
40151;DHT22;25866;52.420;10.640;2024-01-15T09:45:43;1.60;99.90
40151;DHT22;25866;52.420;10.640;2024-01-15T09:48:09;1.50;99.90
40151;DHT22;25866;52.420;10.640;2024-01-15T09:50:35;1.50;99.90
40151;DHT22;25866;52.420;10.640;2024-01-15T09:53:15;1.40;99.90
40151;DHT22;25866;52.420;10.640;2024-01-15T09:55:41;1.50;99.90
40151;DHT22;25866;52.420;10.640;2024-01-15T09:58:07;1.50;99.90
40151;DHT22;25866;52.420;10.640;2024-01-15T10:00:37;1.50;99.90
40151;DHT22;25866;52.420;10.640;2024-01-15T10:03:06;1.40;99.90
40151;DHT22;25866;52.420;10.640;2024-01-15T10:05:33;1.30;99.90
40151;DHT22;25866;52.420;10.640;2024-01-15T10:08:02;1.40;99.90
40151;DHT22;25866;52.420;10.640;2024-01-15T10:10:28;1.50;99.90
40151;DHT22;25866;52.420;10.640;2024-01-15T10:12:55;1.50;99.90
40151;DHT22;25866;52.420;10.640;2024-01-15T10:15:26;1.60;99.90
40151;DHT22;25866;52.420;10.640;2024-01-15T10:17:52;1.60;99.90
40151;DHT22;25866;52.420;10.640;2024-01-15T10:20:17;1.70;99.90
40151;DHT22;25866;52.420;10.640;2024-01-15T10:22:51;1.70;99.90
40151;DHT22;25866;52.420;10.640;2024-01-15T10:25:17;1.80;99.90
40151;DHT22;25866;52.420;10.640;2024-01-15T10:28:02;1.80;99.90
40151;DHT22;25866;52.420;10.640;2024-01-15T10:30:28;1.90;99.90
40151;DHT22;25866;52.420;10.640;2024-01-15T10:33:04;2.00;99.90
40151;DHT22;25866;52.420;10.640;2024-01-15T10:35:32;2.00;99.90
40151;DHT22;25866;52.420;10.640;2024-01-15T10:37:59;2.10;99.90
40151;DHT22;25866;52.420;10.640;2024-01-15T10:40:25;2.10;99.90
40151;DHT22;25866;52.420;10.640;2024-01-15T10:43:24;2.00;99.90
40151;DHT22;25866;52.420;10.640;2024-01-15T10:45:51;2.00;99.90
40151;DHT22;25866;52.420;10.640;2024-01-15T10:48:18;2.00;99.90
40151;DHT22;25866;52.420;10.640;2024-01-15T10:50:45;2.00;99.90
40151;DHT22;25866;52.420;10.640;2024-01-15T10:53:17;2.10;99.90
40151;DHT22;25866;52.420;10.640;2024-01-15T10:55:43;2.10;99.90
40151;DHT22;25866;52.420;10.640;2024-01-15T10:58:11;2.10;99.90
40151;DHT22;25866;52.420;10.640;2024-01-15T11:00:38;2.10;99.90
40151;DHT22;25866;52.420;10.640;2024-01-15T11:03:05;2.10;99.90
40151;DHT22;25866;52.420;10.640;2024-01-15T11:05:41;2.20;99.90
40151;DHT22;25866;52.420;10.640;2024-01-15T11:08:08;2.10;99.90
40151;DHT22;25866;52.420;10.640;2024-01-15T11:10:45;2.20;99.90
40151;DHT22;25866;52.420;10.640;2024-01-15T11:16:07;2.20;99.90
40151;DHT22;25866;52.420;10.640;2024-01-15T11:18:38;2.20;99.90
40151;DHT22;25866;52.420;10.640;2024-01-15T11:23:47;2.30;99.90
40151;DHT22;25866;52.420;10.640;2024-01-15T11:28:58;2.20;99.90
40151;DHT22;25866;52.420;10.640;2024-01-15T11:31:30;2.10;99.90
40151;DHT22;25866;52.420;10.640;2024-01-15T11:34:16;2.10;99.90
40151;DHT22;25866;52.420;10.640;2024-01-15T11:42:01;2.10;99.90
40151;DHT22;25866;52.420;10.640;2024-01-15T11:44:29;2.10;99.90
40151;DHT22;25866;52.420;10.640;2024-01-15T11:47:00;2.10;99.90
40151;DHT22;25866;52.420;10.640;2024-01-15T11:49:58;2.10;99.90
40151;DHT22;25866;52.420;10.640;2024-01-15T11:52:25;2.10;99.90
40151;DHT22;25866;52.420;10.640;2024-01-15T12:00:06;2.10;99.90
40151;DHT22;25866;52.420;10.640;2024-01-15T12:02:32;2.00;99.90
40151;DHT22;25866;52.420;10.640;2024-01-15T12:04:59;2.00;99.90
40151;DHT22;25866;52.420;10.640;2024-01-15T12:07:25;2.00;99.90
40151;DHT22;25866;52.420;10.640;2024-01-15T12:09:50;2.00;99.90
40151;DHT22;25866;52.420;10.640;2024-01-15T12:13:11;2.00;99.90
40151;DHT22;25866;52.420;10.640;2024-01-15T12:15:41;2.00;99.90
40151;DHT22;25866;52.420;10.640;2024-01-15T12:18:11;2.00;99.90
40151;DHT22;25866;52.420;10.640;2024-01-15T12:20:39;2.00;99.90
40151;DHT22;25866;52.420;10.640;2024-01-15T12:23:05;2.00;99.90
40151;DHT22;25866;52.420;10.640;2024-01-15T12:25:35;2.00;99.90
40151;DHT22;25866;52.420;10.640;2024-01-15T12:28:01;1.90;99.90
40151;DHT22;25866;52.420;10.640;2024-01-15T12:30:28;2.00;99.90
40151;DHT22;25866;52.420;10.640;2024-01-15T12:32:54;2.00;99.90
40151;DHT22;25866;52.420;10.640;2024-01-15T12:35:20;2.00;99.90
40151;DHT22;25866;52.420;10.640;2024-01-15T12:37:47;2.10;99.90
40151;DHT22;25866;52.420;10.640;2024-01-15T12:40:14;2.10;99.90
40151;DHT22;25866;52.420;10.640;2024-01-15T12:42:44;2.10;99.90
40151;DHT22;25866;52.420;10.640;2024-01-15T12:45:11;2.20;99.90
40151;DHT22;25866;52.420;10.640;2024-01-15T12:47:38;2.20;99.90
40151;DHT22;25866;52.420;10.640;2024-01-15T12:50:11;2.20;99.90
40151;DHT22;25866;52.420;10.640;2024-01-15T12:52:39;2.30;99.90
40151;DHT22;25866;52.420;10.640;2024-01-15T12:55:18;2.40;99.90
40151;DHT22;25866;52.420;10.640;2024-01-15T12:57:43;2.40;99.90
40151;DHT22;25866;52.420;10.640;2024-01-15T13:00:10;2.50;99.90
40151;DHT22;25866;52.420;10.640;2024-01-15T13:02:46;2.50;99.90
40151;DHT22;25866;52.420;10.640;2024-01-15T13:05:25;2.50;99.90
40151;DHT22;25866;52.420;10.640;2024-01-15T13:07:52;2.50;99.90
40151;DHT22;25866;52.420;10.640;2024-01-15T13:10:18;2.50;99.90
40151;DHT22;25866;52.420;10.640;2024-01-15T13:12:45;2.40;99.90
40151;DHT22;25866;52.420;10.640;2024-01-15T13:15:17;2.30;99.90
40151;DHT22;25866;52.420;10.640;2024-01-15T13:17:43;2.30;99.90
40151;DHT22;25866;52.420;10.640;2024-01-15T13:20:09;2.20;99.90
40151;DHT22;25866;52.420;10.640;2024-01-15T13:22:36;2.20;99.90
40151;DHT22;25866;52.420;10.640;2024-01-15T13:25:07;2.20;99.90
40151;DHT22;25866;52.420;10.640;2024-01-15T13:27:33;2.30;99.90
40151;DHT22;25866;52.420;10.640;2024-01-15T13:30:02;2.30;99.90
40151;DHT22;25866;52.420;10.640;2024-01-15T13:32:28;2.20;99.90
40151;DHT22;25866;52.420;10.640;2024-01-15T13:34:57;2.00;99.90
40151;DHT22;25866;52.420;10.640;2024-01-15T13:37:22;2.00;99.90
40151;DHT22;25866;52.420;10.640;2024-01-15T13:39:51;2.00;99.90
40151;DHT22;25866;52.420;10.640;2024-01-15T13:42:18;2.10;99.90
40151;DHT22;25866;52.420;10.640;2024-01-15T13:44:43;2.10;99.90
40151;DHT22;25866;52.420;10.640;2024-01-15T13:47:09;2.20;99.90
40151;DHT22;25866;52.420;10.640;2024-01-15T13:49:35;2.20;99.90
40151;DHT22;25866;52.420;10.640;2024-01-15T13:52:03;2.20;99.90
40151;DHT22;25866;52.420;10.640;2024-01-15T13:54:29;2.10;99.90
40151;DHT22;25866;52.420;10.640;2024-01-15T13:57:01;2.10;99.90
40151;DHT22;25866;52.420;10.640;2024-01-15T13:59:27;2.00;99.90
40151;DHT22;25866;52.420;10.640;2024-01-15T14:01:53;2.10;99.90
40151;DHT22;25866;52.420;10.640;2024-01-15T14:04:19;2.20;99.90
40151;DHT22;25866;52.420;10.640;2024-01-15T14:06:52;2.10;99.90
40151;DHT22;25866;52.420;10.640;2024-01-15T14:09:17;2.10;99.90
40151;DHT22;25866;52.420;10.640;2024-01-15T14:11:43;2.00;99.90
40151;DHT22;25866;52.420;10.640;2024-01-15T14:14:09;1.90;99.90
40151;DHT22;25866;52.420;10.640;2024-01-15T14:16:37;1.80;99.90
40151;DHT22;25866;52.420;10.640;2024-01-15T14:19:03;1.80;99.90
40151;DHT22;25866;52.420;10.640;2024-01-15T14:21:28;1.80;99.90
40151;DHT22;25866;52.420;10.640;2024-01-15T14:23:54;1.80;99.90
40151;DHT22;25866;52.420;10.640;2024-01-15T14:26:28;1.70;99.90
40151;DHT22;25866;52.420;10.640;2024-01-15T14:28:54;1.70;99.90
40151;DHT22;25866;52.420;10.640;2024-01-15T14:31:22;1.60;99.90
40151;DHT22;25866;52.420;10.640;2024-01-15T14:33:50;1.50;99.90
40151;DHT22;25866;52.420;10.640;2024-01-15T14:36:30;1.40;99.90
40151;DHT22;25866;52.420;10.640;2024-01-15T14:38:56;1.50;99.90
40151;DHT22;25866;52.420;10.640;2024-01-15T14:41:21;1.40;99.90
40151;DHT22;25866;52.420;10.640;2024-01-15T14:43:47;1.50;99.90
40151;DHT22;25866;52.420;10.640;2024-01-15T14:46:29;1.40;99.90
40151;DHT22;25866;52.420;10.640;2024-01-15T14:48:55;1.40;99.90
40151;DHT22;25866;52.420;10.640;2024-01-15T14:51:21;1.40;99.90
40151;DHT22;25866;52.420;10.640;2024-01-15T14:53:46;1.40;99.90
40151;DHT22;25866;52.420;10.640;2024-01-15T14:56:12;1.40;99.90
40151;DHT22;25866;52.420;10.640;2024-01-15T14:58:38;1.30;99.90
40151;DHT22;25866;52.420;10.640;2024-01-15T15:01:04;1.30;99.90
40151;DHT22;25866;52.420;10.640;2024-01-15T15:03:29;1.30;99.90
40151;DHT22;25866;52.420;10.640;2024-01-15T15:05:56;1.30;99.90
40151;DHT22;25866;52.420;10.640;2024-01-15T15:08:22;1.30;99.90
40151;DHT22;25866;52.420;10.640;2024-01-15T15:10:47;1.30;99.90
40151;DHT22;25866;52.420;10.640;2024-01-15T15:13:13;1.30;99.90
40151;DHT22;25866;52.420;10.640;2024-01-15T15:15:39;1.30;99.90
40151;DHT22;25866;52.420;10.640;2024-01-15T15:18:06;1.20;99.90
40151;DHT22;25866;52.420;10.640;2024-01-15T15:20:31;1.30;99.90
40151;DHT22;25866;52.420;10.640;2024-01-15T15:22:57;1.20;99.90
40151;DHT22;25866;52.420;10.640;2024-01-15T15:25:23;1.20;99.90
40151;DHT22;25866;52.420;10.640;2024-01-15T15:27:58;1.20;99.90
40151;DHT22;25866;52.420;10.640;2024-01-15T15:30:24;1.20;99.90
40151;DHT22;25866;52.420;10.640;2024-01-15T15:32:49;1.20;99.90
40151;DHT22;25866;52.420;10.640;2024-01-15T15:35:15;1.20;99.90
40151;DHT22;25866;52.420;10.640;2024-01-15T15:37:41;1.30;99.90
40151;DHT22;25866;52.420;10.640;2024-01-15T15:40:07;1.30;99.90
40151;DHT22;25866;52.420;10.640;2024-01-15T15:42:34;1.30;99.90
40151;DHT22;25866;52.420;10.640;2024-01-15T15:45:00;1.30;99.90
40151;DHT22;25866;52.420;10.640;2024-01-15T15:47:31;1.30;99.90
40151;DHT22;25866;52.420;10.640;2024-01-15T15:49:57;1.30;99.90
40151;DHT22;25866;52.420;10.640;2024-01-15T15:52:23;1.30;99.90
40151;DHT22;25866;52.420;10.640;2024-01-15T15:54:49;1.30;99.90
40151;DHT22;25866;52.420;10.640;2024-01-15T15:57:17;1.30;99.90
40151;DHT22;25866;52.420;10.640;2024-01-15T15:59:43;1.30;99.90
40151;DHT22;25866;52.420;10.640;2024-01-15T16:02:08;1.30;99.90